sensor_id;sensor_type;location;lat;lon;timestamp;P1;durP1;ratioP1;P2;durP2;ratioP2
19260;SDS011;9764;48.114;11.670;2023-04-01T00:01:02;0.40;;;0.40;;
19260;SDS011;9764;48.114;11.670;2023-04-01T00:03:33;1.13;;;0.60;;
19260;SDS011;9764;48.114;11.670;2023-04-01T00:06:03;0.40;;;0.40;;
19260;SDS011;9764;48.114;11.670;2023-04-01T00:08:34;0.47;;;0.45;;
19260;SDS011;9764;48.114;11.670;2023-04-01T00:11:02;0.93;;;0.57;;
19260;SDS011;9764;48.114;11.670;2023-04-01T00:13:30;0.40;;;0.40;;
19260;SDS011;9764;48.114;11.670;2023-04-01T00:16:02;0.63;;;0.52;;
19260;SDS011;9764;48.114;11.670;2023-04-01T00:18:47;0.68;;;0.65;;
19260;SDS011;9764;48.114;11.670;2023-04-01T00:21:15;0.88;;;0.50;;
19260;SDS011;9764;48.114;11.670;2023-04-01T00:23:44;0.43;;;0.43;;
19260;SDS011;9764;48.114;11.670;2023-04-01T00:26:12;0.40;;;0.40;;
19260;SDS011;9764;48.114;11.670;2023-04-01T00:28:45;0.38;;;0.38;;
19260;SDS011;9764;48.114;11.670;2023-04-01T00:31:13;0.93;;;0.50;;
19260;SDS011;9764;48.114;11.670;2023-04-01T00:33:42;0.50;;;0.40;;
19260;SDS011;9764;48.114;11.670;2023-04-01T00:36:13;0.90;;;0.70;;
19260;SDS011;9764;48.114;11.670;2023-04-01T00:38:43;0.65;;;0.40;;
19260;SDS011;9764;48.114;11.670;2023-04-01T00:41:13;0.60;;;0.60;;
19260;SDS011;9764;48.114;11.670;2023-04-01T00:43:42;0.40;;;0.40;;
19260;SDS011;9764;48.114;11.670;2023-04-01T00:46:12;0.40;;;0.40;;
19260;SDS011;9764;48.114;11.670;2023-04-01T00:48:42;0.40;;;0.40;;
19260;SDS011;9764;48.114;11.670;2023-04-01T00:51:15;0.57;;;0.55;;
19260;SDS011;9764;48.114;11.670;2023-04-01T00:53:46;0.47;;;0.40;;
19260;SDS011;9764;48.114;11.670;2023-04-01T00:56:18;0.68;;;0.50;;
19260;SDS011;9764;48.114;11.670;2023-04-01T00:58:50;0.30;;;0.30;;
19260;SDS011;9764;48.114;11.670;2023-04-01T01:01:22;0.75;;;0.40;;
19260;SDS011;9764;48.114;11.670;2023-04-01T01:03:52;1.23;;;0.50;;
19260;SDS011;9764;48.114;11.670;2023-04-01T01:06:26;0.40;;;0.40;;
19260;SDS011;9764;48.114;11.670;2023-04-01T01:09:10;0.40;;;0.40;;
19260;SDS011;9764;48.114;11.670;2023-04-01T01:11:47;0.47;;;0.47;;
19260;SDS011;9764;48.114;11.670;2023-04-01T01:14:22;0.35;;;0.35;;
19260;SDS011;9764;48.114;11.670;2023-04-01T01:17:02;0.50;;;0.40;;
19260;SDS011;9764;48.114;11.670;2023-04-01T01:19:45;0.38;;;0.38;;
19260;SDS011;9764;48.114;11.670;2023-04-01T01:25:25;0.40;;;0.40;;
19260;SDS011;9764;48.114;11.670;2023-04-01T01:28:03;0.40;;;0.40;;
19260;SDS011;9764;48.114;11.670;2023-04-01T01:30:49;0.47;;;0.47;;
19260;SDS011;9764;48.114;11.670;2023-04-01T01:33:25;0.40;;;0.40;;
19260;SDS011;9764;48.114;11.670;2023-04-01T01:36:18;0.50;;;0.50;;
19260;SDS011;9764;48.114;11.670;2023-04-01T01:38:48;0.50;;;0.40;;
19260;SDS011;9764;48.114;11.670;2023-04-01T01:41:17;0.45;;;0.45;;
19260;SDS011;9764;48.114;11.670;2023-04-01T01:43:48;0.40;;;0.40;;
19260;SDS011;9764;48.114;11.670;2023-04-01T01:46:22;0.38;;;0.38;;
19260;SDS011;9764;48.114;11.670;2023-04-01T01:48:53;0.43;;;0.43;;
19260;SDS011;9764;48.114;11.670;2023-04-01T01:51:24;0.40;;;0.40;;
19260;SDS011;9764;48.114;11.670;2023-04-01T01:53:55;0.30;;;0.30;;
19260;SDS011;9764;48.114;11.670;2023-04-01T01:56:25;0.50;;;0.50;;
19260;SDS011;9764;48.114;11.670;2023-04-01T01:58:56;0.50;;;0.50;;
19260;SDS011;9764;48.114;11.670;2023-04-01T02:01:29;0.40;;;0.40;;
19260;SDS011;9764;48.114;11.670;2023-04-01T02:04:07;0.52;;;0.40;;
19260;SDS011;9764;48.114;11.670;2023-04-01T02:06:41;0.30;;;0.30;;
19260;SDS011;9764;48.114;11.670;2023-04-01T02:09:14;1.30;;;0.40;;
19260;SDS011;9764;48.114;11.670;2023-04-01T02:11:45;0.40;;;0.40;;
19260;SDS011;9764;48.114;11.670;2023-04-01T02:14:16;0.82;;;0.50;;
19260;SDS011;9764;48.114;11.670;2023-04-01T02:16:49;0.40;;;0.40;;
19260;SDS011;9764;48.114;11.670;2023-04-01T02:19:21;0.50;;;0.40;;
19260;SDS011;9764;48.114;11.670;2023-04-01T02:21:55;0.80;;;0.55;;
19260;SDS011;9764;48.114;11.670;2023-04-01T02:24:27;0.40;;;0.40;;
19260;SDS011;9764;48.114;11.670;2023-04-01T02:26:59;0.30;;;0.30;;
19260;SDS011;9764;48.114;11.670;2023-04-01T02:29:28;0.40;;;0.40;;
19260;SDS011;9764;48.114;11.670;2023-04-01T02:31:57;0.30;;;0.30;;
19260;SDS011;9764;48.114;11.670;2023-04-01T02:34:26;0.38;;;0.38;;
19260;SDS011;9764;48.114;11.670;2023-04-01T02:36:56;0.50;;;0.47;;
19260;SDS011;9764;48.114;11.670;2023-04-01T02:39:25;0.40;;;0.40;;
19260;SDS011;9764;48.114;11.670;2023-04-01T02:41:53;0.30;;;0.30;;
19260;SDS011;9764;48.114;11.670;2023-04-01T02:44:22;0.43;;;0.43;;
19260;SDS011;9764;48.114;11.670;2023-04-01T02:46:50;0.40;;;0.40;;
19260;SDS011;9764;48.114;11.670;2023-04-01T02:49:19;0.32;;;0.32;;
19260;SDS011;9764;48.114;11.670;2023-04-01T02:51:47;0.40;;;0.40;;
19260;SDS011;9764;48.114;11.670;2023-04-01T02:54:17;0.30;;;0.30;;
19260;SDS011;9764;48.114;11.670;2023-04-01T02:56:46;0.30;;;0.30;;
19260;SDS011;9764;48.114;11.670;2023-04-01T02:59:14;0.47;;;0.47;;
19260;SDS011;9764;48.114;11.670;2023-04-01T03:01:43;0.30;;;0.30;;
19260;SDS011;9764;48.114;11.670;2023-04-01T03:04:11;0.47;;;0.47;;
19260;SDS011;9764;48.114;11.670;2023-04-01T03:06:39;0.30;;;0.30;;
19260;SDS011;9764;48.114;11.670;2023-04-01T03:09:08;0.35;;;0.30;;
19260;SDS011;9764;48.114;11.670;2023-04-01T03:11:38;0.28;;;0.28;;
19260;SDS011;9764;48.114;11.670;2023-04-01T03:14:07;0.32;;;0.30;;
19260;SDS011;9764;48.114;11.670;2023-04-01T03:16:35;0.32;;;0.32;;
19260;SDS011;9764;48.114;11.670;2023-04-01T03:19:04;0.40;;;0.40;;
19260;SDS011;9764;48.114;11.670;2023-04-01T03:21:32;0.30;;;0.30;;
19260;SDS011;9764;48.114;11.670;2023-04-01T03:24:00;0.40;;;0.40;;
19260;SDS011;9764;48.114;11.670;2023-04-01T03:26:29;0.50;;;0.40;;
19260;SDS011;9764;48.114;11.670;2023-04-01T03:28:59;0.40;;;0.40;;
19260;SDS011;9764;48.114;11.670;2023-04-01T03:31:27;0.32;;;0.32;;
19260;SDS011;9764;48.114;11.670;2023-04-01T03:33:56;0.30;;;0.30;;
19260;SDS011;9764;48.114;11.670;2023-04-01T03:36:24;0.30;;;0.30;;
19260;SDS011;9764;48.114;11.670;2023-04-01T03:38:53;0.30;;;0.30;;
19260;SDS011;9764;48.114;11.670;2023-04-01T03:41:31;0.35;;;0.35;;
19260;SDS011;9764;48.114;11.670;2023-04-01T03:44:01;0.30;;;0.30;;
19260;SDS011;9764;48.114;11.670;2023-04-01T03:46:29;0.30;;;0.30;;
19260;SDS011;9764;48.114;11.670;2023-04-01T03:48:58;0.30;;;0.30;;
19260;SDS011;9764;48.114;11.670;2023-04-01T03:51:26;1.17;;;0.30;;
19260;SDS011;9764;48.114;11.670;2023-04-01T03:53:54;0.30;;;0.30;;
19260;SDS011;9764;48.114;11.670;2023-04-01T03:56:23;0.30;;;0.30;;
19260;SDS011;9764;48.114;11.670;2023-04-01T03:58:51;1.58;;;0.30;;
19260;SDS011;9764;48.114;11.670;2023-04-01T04:01:21;0.45;;;0.40;;
19260;SDS011;9764;48.114;11.670;2023-04-01T04:03:53;0.20;;;0.20;;
19260;SDS011;9764;48.114;11.670;2023-04-01T04:06:23;0.30;;;0.30;;
19260;SDS011;9764;48.114;11.670;2023-04-01T04:08:52;0.40;;;0.40;;
19260;SDS011;9764;48.114;11.670;2023-04-01T04:11:21;0.22;;;0.22;;
19260;SDS011;9764;48.114;11.670;2023-04-01T04:13:51;0.65;;;0.40;;
19260;SDS011;9764;48.114;11.670;2023-04-01T04:16:23;0.30;;;0.30;;
19260;SDS011;9764;48.114;11.670;2023-04-01T04:18:56;1.33;;;0.30;;
19260;SDS011;9764;48.114;11.670;2023-04-01T04:21:24;0.30;;;0.30;;
19260;SDS011;9764;48.114;11.670;2023-04-01T04:23:53;0.35;;;0.35;;
19260;SDS011;9764;48.114;11.670;2023-04-01T04:26:21;0.30;;;0.30;;
19260;SDS011;9764;48.114;11.670;2023-04-01T04:28:57;0.47;;;0.30;;
19260;SDS011;9764;48.114;11.670;2023-04-01T04:31:27;0.57;;;0.40;;
19260;SDS011;9764;48.114;11.670;2023-04-01T04:33:58;0.40;;;0.40;;
19260;SDS011;9764;48.114;11.670;2023-04-01T04:36:32;0.25;;;0.25;;
19260;SDS011;9764;48.114;11.670;2023-04-01T04:39:00;0.30;;;0.30;;
19260;SDS011;9764;48.114;11.670;2023-04-01T04:41:31;0.30;;;0.30;;
19260;SDS011;9764;48.114;11.670;2023-04-01T04:44:03;0.60;;;0.40;;
19260;SDS011;9764;48.114;11.670;2023-04-01T04:46:33;0.30;;;0.30;;
19260;SDS011;9764;48.114;11.670;2023-04-01T04:49:11;0.30;;;0.30;;
19260;SDS011;9764;48.114;11.670;2023-04-01T04:51:40;0.52;;;0.40;;
19260;SDS011;9764;48.114;11.670;2023-04-01T04:54:09;0.30;;;0.30;;
19260;SDS011;9764;48.114;11.670;2023-04-01T04:56:50;0.30;;;0.30;;
19260;SDS011;9764;48.114;11.670;2023-04-01T04:59:20;0.40;;;0.40;;
19260;SDS011;9764;48.114;11.670;2023-04-01T05:01:57;0.40;;;0.30;;
19260;SDS011;9764;48.114;11.670;2023-04-01T05:04:27;0.30;;;0.30;;
19260;SDS011;9764;48.114;11.670;2023-04-01T05:06:56;0.22;;;0.22;;
19260;SDS011;9764;48.114;11.670;2023-04-01T05:09:27;0.35;;;0.35;;
19260;SDS011;9764;48.114;11.670;2023-04-01T05:11:56;0.30;;;0.30;;
19260;SDS011;9764;48.114;11.670;2023-04-01T05:14:27;0.38;;;0.30;;
19260;SDS011;9764;48.114;11.670;2023-04-01T05:17:04;1.50;;;0.40;;
19260;SDS011;9764;48.114;11.670;2023-04-01T05:19:36;0.45;;;0.30;;
19260;SDS011;9764;48.114;11.670;2023-04-01T05:22:04;0.45;;;0.30;;
19260;SDS011;9764;48.114;11.670;2023-04-01T05:24:33;0.60;;;0.60;;
19260;SDS011;9764;48.114;11.670;2023-04-01T05:27:02;0.40;;;0.38;;
19260;SDS011;9764;48.114;11.670;2023-04-01T05:29:30;0.82;;;0.40;;
19260;SDS011;9764;48.114;11.670;2023-04-01T05:32:05;0.38;;;0.38;;
19260;SDS011;9764;48.114;11.670;2023-04-01T05:34:35;2.78;;;0.40;;
19260;SDS011;9764;48.114;11.670;2023-04-01T05:37:03;0.40;;;0.40;;
19260;SDS011;9764;48.114;11.670;2023-04-01T05:39:35;0.52;;;0.40;;
19260;SDS011;9764;48.114;11.670;2023-04-01T05:42:05;0.45;;;0.40;;
19260;SDS011;9764;48.114;11.670;2023-04-01T05:44:34;0.30;;;0.30;;
19260;SDS011;9764;48.114;11.670;2023-04-01T05:47:07;0.95;;;0.38;;
19260;SDS011;9764;48.114;11.670;2023-04-01T05:49:36;0.70;;;0.40;;
19260;SDS011;9764;48.114;11.670;2023-04-01T05:52:04;0.57;;;0.52;;
19260;SDS011;9764;48.114;11.670;2023-04-01T05:54:34;0.30;;;0.30;;
19260;SDS011;9764;48.114;11.670;2023-04-01T05:57:03;0.30;;;0.30;;
19260;SDS011;9764;48.114;11.670;2023-04-01T05:59:31;3.92;;;0.40;;
19260;SDS011;9764;48.114;11.670;2023-04-01T06:02:02;0.55;;;0.40;;
19260;SDS011;9764;48.114;11.670;2023-04-01T06:04:34;1.67;;;0.40;;
19260;SDS011;9764;48.114;11.670;2023-04-01T06:07:10;0.30;;;0.30;;
19260;SDS011;9764;48.114;11.670;2023-04-01T06:09:39;0.30;;;0.30;;
19260;SDS011;9764;48.114;11.670;2023-04-01T06:12:14;0.40;;;0.40;;
19260;SDS011;9764;48.114;11.670;2023-04-01T06:15:06;0.45;;;0.40;;
19260;SDS011;9764;48.114;11.670;2023-04-01T06:17:49;0.40;;;0.40;;
19260;SDS011;9764;48.114;11.670;2023-04-01T06:20:35;0.40;;;0.40;;
19260;SDS011;9764;48.114;11.670;2023-04-01T06:23:14;0.45;;;0.40;;
19260;SDS011;9764;48.114;11.670;2023-04-01T06:26:01;1.27;;;0.30;;
19260;SDS011;9764;48.114;11.670;2023-04-01T06:28:44;0.35;;;0.30;;
19260;SDS011;9764;48.114;11.670;2023-04-01T06:34:46;0.40;;;0.40;;
19260;SDS011;9764;48.114;11.670;2023-04-01T06:37:35;0.40;;;0.40;;
19260;SDS011;9764;48.114;11.670;2023-04-01T06:40:21;0.75;;;0.50;;
19260;SDS011;9764;48.114;11.670;2023-04-01T06:43:14;0.30;;;0.30;;
19260;SDS011;9764;48.114;11.670;2023-04-01T06:46:28;0.30;;;0.30;;
19260;SDS011;9764;48.114;11.670;2023-04-01T06:49:28;0.30;;;0.30;;
19260;SDS011;9764;48.114;11.670;2023-04-01T06:52:22;0.35;;;0.30;;
19260;SDS011;9764;48.114;11.670;2023-04-01T06:55:27;0.38;;;0.38;;
19260;SDS011;9764;48.114;11.670;2023-04-01T06:58:26;0.65;;;0.40;;
19260;SDS011;9764;48.114;11.670;2023-04-01T07:00:58;0.40;;;0.40;;
19260;SDS011;9764;48.114;11.670;2023-04-01T07:03:29;1.05;;;0.45;;
19260;SDS011;9764;48.114;11.670;2023-04-01T07:06:04;0.30;;;0.30;;
19260;SDS011;9764;48.114;11.670;2023-04-01T07:08:40;0.40;;;0.40;;
19260;SDS011;9764;48.114;11.670;2023-04-01T07:11:14;0.75;;;0.40;;
19260;SDS011;9764;48.114;11.670;2023-04-01T07:14:25;0.30;;;0.30;;
19260;SDS011;9764;48.114;11.670;2023-04-01T07:16:59;0.30;;;0.30;;
19260;SDS011;9764;48.114;11.670;2023-04-01T07:19:34;0.60;;;0.32;;
19260;SDS011;9764;48.114;11.670;2023-04-01T07:22:12;0.82;;;0.50;;
19260;SDS011;9764;48.114;11.670;2023-04-01T07:25:03;1.00;;;0.38;;
19260;SDS011;9764;48.114;11.670;2023-04-01T07:27:40;0.30;;;0.30;;
19260;SDS011;9764;48.114;11.670;2023-04-01T07:30:13;0.30;;;0.30;;
19260;SDS011;9764;48.114;11.670;2023-04-01T07:32:44;0.57;;;0.40;;
19260;SDS011;9764;48.114;11.670;2023-04-01T07:35:21;0.40;;;0.40;;
19260;SDS011;9764;48.114;11.670;2023-04-01T07:37:59;0.43;;;0.43;;
19260;SDS011;9764;48.114;11.670;2023-04-01T07:40:39;0.28;;;0.28;;
19260;SDS011;9764;48.114;11.670;2023-04-01T07:46:23;0.55;;;0.30;;
19260;SDS011;9764;48.114;11.670;2023-04-01T07:49:13;1.15;;;0.50;;
19260;SDS011;9764;48.114;11.670;2023-04-01T07:51:46;0.40;;;0.40;;
19260;SDS011;9764;48.114;11.670;2023-04-01T07:54:22;0.32;;;0.30;;
19260;SDS011;9764;48.114;11.670;2023-04-01T07:56:57;2.17;;;0.40;;
19260;SDS011;9764;48.114;11.670;2023-04-01T07:59:52;0.50;;;0.50;;
19260;SDS011;9764;48.114;11.670;2023-04-01T08:02:43;0.40;;;0.40;;
19260;SDS011;9764;48.114;11.670;2023-04-01T08:05:25;0.40;;;0.40;;
19260;SDS011;9764;48.114;11.670;2023-04-01T08:08:00;0.32;;;0.32;;
19260;SDS011;9764;48.114;11.670;2023-04-01T08:10:54;0.85;;;0.50;;
19260;SDS011;9764;48.114;11.670;2023-04-01T08:13:50;0.93;;;0.52;;
19260;SDS011;9764;48.114;11.670;2023-04-01T08:16:46;0.77;;;0.40;;
19260;SDS011;9764;48.114;11.670;2023-04-01T08:19:37;0.40;;;0.40;;
19260;SDS011;9764;48.114;11.670;2023-04-01T08:22:16;1.70;;;0.85;;
19260;SDS011;9764;48.114;11.670;2023-04-01T08:24:50;0.95;;;0.90;;
19260;SDS011;9764;48.114;11.670;2023-04-01T08:27:24;0.63;;;0.63;;
19260;SDS011;9764;48.114;11.670;2023-04-01T08:29:59;1.20;;;0.80;;
19260;SDS011;9764;48.114;11.670;2023-04-01T08:32:37;1.60;;;0.85;;
19260;SDS011;9764;48.114;11.670;2023-04-01T08:35:14;0.73;;;0.73;;
19260;SDS011;9764;48.114;11.670;2023-04-01T08:37:49;1.05;;;0.80;;
19260;SDS011;9764;48.114;11.670;2023-04-01T08:40:27;0.90;;;0.82;;
19260;SDS011;9764;48.114;11.670;2023-04-01T08:43:11;1.30;;;0.90;;
19260;SDS011;9764;48.114;11.670;2023-04-01T08:45:56;0.80;;;0.80;;
19260;SDS011;9764;48.114;11.670;2023-04-01T08:48:48;1.05;;;0.77;;
19260;SDS011;9764;48.114;11.670;2023-04-01T08:51:35;1.27;;;0.85;;
19260;SDS011;9764;48.114;11.670;2023-04-01T08:54:31;0.63;;;0.63;;
19260;SDS011;9764;48.114;11.670;2023-04-01T08:57:21;1.85;;;0.65;;
19260;SDS011;9764;48.114;11.670;2023-04-01T09:00:24;0.50;;;0.50;;
19260;SDS011;9764;48.114;11.670;2023-04-01T09:09:03;0.50;;;0.50;;
19260;SDS011;9764;48.114;11.670;2023-04-01T09:12:10;1.42;;;0.70;;
19260;SDS011;9764;48.114;11.670;2023-04-01T09:14:58;0.85;;;0.65;;
19260;SDS011;9764;48.114;11.670;2023-04-01T09:17:50;0.50;;;0.50;;
19260;SDS011;9764;48.114;11.670;2023-04-01T09:20:43;0.57;;;0.55;;
19260;SDS011;9764;48.114;11.670;2023-04-01T09:26:32;0.50;;;0.50;;
19260;SDS011;9764;48.114;11.670;2023-04-01T09:29:16;0.50;;;0.50;;
19260;SDS011;9764;48.114;11.670;2023-04-01T09:32:00;0.40;;;0.40;;
19260;SDS011;9764;48.114;11.670;2023-04-01T09:35:25;0.57;;;0.57;;
19260;SDS011;9764;48.114;11.670;2023-04-01T09:38:04;0.70;;;0.65;;
19260;SDS011;9764;48.114;11.670;2023-04-01T09:40:51;0.47;;;0.47;;
19260;SDS011;9764;48.114;11.670;2023-04-01T09:43:52;0.50;;;0.50;;
19260;SDS011;9764;48.114;11.670;2023-04-01T09:46:52;0.40;;;0.40;;
19260;SDS011;9764;48.114;11.670;2023-04-01T09:52:26;0.52;;;0.52;;
19260;SDS011;9764;48.114;11.670;2023-04-01T09:55:19;0.40;;;0.40;;
19260;SDS011;9764;48.114;11.670;2023-04-01T09:58:15;0.80;;;0.50;;
19260;SDS011;9764;48.114;11.670;2023-04-01T10:01:18;0.40;;;0.40;;
19260;SDS011;9764;48.114;11.670;2023-04-01T10:04:17;0.95;;;0.40;;
19260;SDS011;9764;48.114;11.670;2023-04-01T10:10:30;0.30;;;0.30;;
19260;SDS011;9764;48.114;11.670;2023-04-01T10:13:35;0.43;;;0.30;;
19260;SDS011;9764;48.114;11.670;2023-04-01T10:16:47;0.40;;;0.40;;
19260;SDS011;9764;48.114;11.670;2023-04-01T10:19:43;0.45;;;0.43;;
19260;SDS011;9764;48.114;11.670;2023-04-01T10:22:48;0.50;;;0.40;;
19260;SDS011;9764;48.114;11.670;2023-04-01T10:26:15;0.32;;;0.32;;
19260;SDS011;9764;48.114;11.670;2023-04-01T10:29:39;0.75;;;0.50;;
19260;SDS011;9764;48.114;11.670;2023-04-01T10:32:40;0.30;;;0.30;;
19260;SDS011;9764;48.114;11.670;2023-04-01T10:35:42;0.45;;;0.43;;
19260;SDS011;9764;48.114;11.670;2023-04-01T10:41:36;0.75;;;0.45;;
19260;SDS011;9764;48.114;11.670;2023-04-01T10:47:56;0.30;;;0.30;;
19260;SDS011;9764;48.114;11.670;2023-04-01T10:50:53;0.52;;;0.40;;
19260;SDS011;9764;48.114;11.670;2023-04-01T10:57:16;0.30;;;0.30;;
19260;SDS011;9764;48.114;11.670;2023-04-01T11:00:57;0.40;;;0.40;;
19260;SDS011;9764;48.114;11.670;2023-04-01T11:07:45;0.30;;;0.30;;
19260;SDS011;9764;48.114;11.670;2023-04-01T11:10:53;0.40;;;0.40;;
19260;SDS011;9764;48.114;11.670;2023-04-01T11:13:55;0.40;;;0.40;;
19260;SDS011;9764;48.114;11.670;2023-04-01T11:22:55;0.30;;;0.30;;
19260;SDS011;9764;48.114;11.670;2023-04-01T11:25:56;0.30;;;0.30;;
19260;SDS011;9764;48.114;11.670;2023-04-01T11:32:29;0.43;;;0.40;;
19260;SDS011;9764;48.114;11.670;2023-04-01T11:38:06;0.30;;;0.30;;
19260;SDS011;9764;48.114;11.670;2023-04-01T11:40:47;0.40;;;0.40;;
19260;SDS011;9764;48.114;11.670;2023-04-01T11:43:57;0.30;;;0.30;;
19260;SDS011;9764;48.114;11.670;2023-04-01T11:46:49;0.43;;;0.40;;
19260;SDS011;9764;48.114;11.670;2023-04-01T11:49:44;0.30;;;0.30;;
19260;SDS011;9764;48.114;11.670;2023-04-01T11:52:39;0.47;;;0.40;;
19260;SDS011;9764;48.114;11.670;2023-04-01T11:55:35;0.30;;;0.30;;
19260;SDS011;9764;48.114;11.670;2023-04-01T11:58:22;0.30;;;0.30;;
19260;SDS011;9764;48.114;11.670;2023-04-01T12:06:48;0.65;;;0.40;;
19260;SDS011;9764;48.114;11.670;2023-04-01T12:09:22;0.25;;;0.25;;
19260;SDS011;9764;48.114;11.670;2023-04-01T12:12:03;0.30;;;0.30;;
19260;SDS011;9764;48.114;11.670;2023-04-01T12:14:43;0.30;;;0.30;;
19260;SDS011;9764;48.114;11.670;2023-04-01T12:17:26;0.20;;;0.20;;
19260;SDS011;9764;48.114;11.670;2023-04-01T12:20:12;0.30;;;0.30;;
19260;SDS011;9764;48.114;11.670;2023-04-01T12:22:56;0.30;;;0.30;;
19260;SDS011;9764;48.114;11.670;2023-04-01T12:28:46;0.77;;;0.50;;
19260;SDS011;9764;48.114;11.670;2023-04-01T12:31:29;0.30;;;0.30;;
19260;SDS011;9764;48.114;11.670;2023-04-01T12:34:19;0.40;;;0.40;;
19260;SDS011;9764;48.114;11.670;2023-04-01T12:37:15;0.30;;;0.30;;
19260;SDS011;9764;48.114;11.670;2023-04-01T12:39:57;0.30;;;0.30;;
19260;SDS011;9764;48.114;11.670;2023-04-01T12:42:41;0.30;;;0.30;;
19260;SDS011;9764;48.114;11.670;2023-04-01T12:45:27;0.30;;;0.30;;
19260;SDS011;9764;48.114;11.670;2023-04-01T12:48:04;0.40;;;0.40;;
19260;SDS011;9764;48.114;11.670;2023-04-01T12:51:05;0.30;;;0.30;;
19260;SDS011;9764;48.114;11.670;2023-04-01T12:54:06;0.35;;;0.30;;
19260;SDS011;9764;48.114;11.670;2023-04-01T12:56:56;0.30;;;0.30;;
19260;SDS011;9764;48.114;11.670;2023-04-01T12:59:37;0.32;;;0.32;;
19260;SDS011;9764;48.114;11.670;2023-04-01T13:02:27;0.25;;;0.25;;
19260;SDS011;9764;48.114;11.670;2023-04-01T13:05:15;0.30;;;0.30;;
19260;SDS011;9764;48.114;11.670;2023-04-01T13:07:58;0.30;;;0.30;;
19260;SDS011;9764;48.114;11.670;2023-04-01T13:10:37;0.40;;;0.40;;
19260;SDS011;9764;48.114;11.670;2023-04-01T13:13:19;0.30;;;0.30;;
19260;SDS011;9764;48.114;11.670;2023-04-01T13:16:01;0.20;;;0.20;;
19260;SDS011;9764;48.114;11.670;2023-04-01T13:18:39;0.30;;;0.30;;
19260;SDS011;9764;48.114;11.670;2023-04-01T13:21:21;0.30;;;0.30;;
19260;SDS011;9764;48.114;11.670;2023-04-01T13:24:01;0.40;;;0.40;;
19260;SDS011;9764;48.114;11.670;2023-04-01T13:26:36;0.50;;;0.30;;
19260;SDS011;9764;48.114;11.670;2023-04-01T13:29:14;0.30;;;0.30;;
19260;SDS011;9764;48.114;11.670;2023-04-01T13:31:49;0.30;;;0.30;;
19260;SDS011;9764;48.114;11.670;2023-04-01T13:34:34;0.30;;;0.30;;
19260;SDS011;9764;48.114;11.670;2023-04-01T13:37:17;0.30;;;0.30;;
19260;SDS011;9764;48.114;11.670;2023-04-01T13:39:56;0.30;;;0.30;;
19260;SDS011;9764;48.114;11.670;2023-04-01T13:42:33;0.43;;;0.35;;
19260;SDS011;9764;48.114;11.670;2023-04-01T13:45:10;0.30;;;0.30;;
19260;SDS011;9764;48.114;11.670;2023-04-01T13:47:58;0.30;;;0.30;;
19260;SDS011;9764;48.114;11.670;2023-04-01T13:57:13;0.30;;;0.30;;
19260;SDS011;9764;48.114;11.670;2023-04-01T14:03:04;0.28;;;0.28;;
19260;SDS011;9764;48.114;11.670;2023-04-01T14:06:06;0.30;;;0.30;;
19260;SDS011;9764;48.114;11.670;2023-04-01T14:11:48;0.45;;;0.30;;
19260;SDS011;9764;48.114;11.670;2023-04-01T14:14:27;0.30;;;0.30;;
19260;SDS011;9764;48.114;11.670;2023-04-01T14:17:13;0.30;;;0.30;;
19260;SDS011;9764;48.114;11.670;2023-04-01T14:23:12;0.30;;;0.30;;
19260;SDS011;9764;48.114;11.670;2023-04-01T14:29:07;0.30;;;0.30;;
19260;SDS011;9764;48.114;11.670;2023-04-01T14:31:55;0.20;;;0.20;;
19260;SDS011;9764;48.114;11.670;2023-04-01T14:34:34;0.30;;;0.30;;
19260;SDS011;9764;48.114;11.670;2023-04-01T14:37:14;0.28;;;0.28;;
19260;SDS011;9764;48.114;11.670;2023-04-01T14:40:05;0.22;;;0.22;;
19260;SDS011;9764;48.114;11.670;2023-04-01T14:45:51;0.30;;;0.30;;
19260;SDS011;9764;48.114;11.670;2023-04-01T14:48:36;0.30;;;0.30;;
19260;SDS011;9764;48.114;11.670;2023-04-01T14:51:10;0.30;;;0.30;;
19260;SDS011;9764;48.114;11.670;2023-04-01T14:53:44;0.43;;;0.32;;
19260;SDS011;9764;48.114;11.670;2023-04-01T14:59:10;2.05;;;0.28;;
19260;SDS011;9764;48.114;11.670;2023-04-01T15:01:55;0.38;;;0.30;;
19260;SDS011;9764;48.114;11.670;2023-04-01T15:04:46;0.22;;;0.22;;
19260;SDS011;9764;48.114;11.670;2023-04-01T15:10:29;0.20;;;0.20;;
19260;SDS011;9764;48.114;11.670;2023-04-01T15:13:13;0.30;;;0.30;;
19260;SDS011;9764;48.114;11.670;2023-04-01T15:15:57;0.20;;;0.20;;
19260;SDS011;9764;48.114;11.670;2023-04-01T15:18:35;0.35;;;0.22;;
19260;SDS011;9764;48.114;11.670;2023-04-01T15:21:18;0.30;;;0.30;;
19260;SDS011;9764;48.114;11.670;2023-04-01T15:23:56;0.30;;;0.30;;
19260;SDS011;9764;48.114;11.670;2023-04-01T15:29:53;0.20;;;0.20;;
19260;SDS011;9764;48.114;11.670;2023-04-01T15:32:49;0.30;;;0.30;;
19260;SDS011;9764;48.114;11.670;2023-04-01T15:35:33;0.30;;;0.30;;
19260;SDS011;9764;48.114;11.670;2023-04-01T15:38:14;0.30;;;0.30;;
19260;SDS011;9764;48.114;11.670;2023-04-01T15:40:53;0.40;;;0.40;;
19260;SDS011;9764;48.114;11.670;2023-04-01T15:43:27;0.32;;;0.32;;
19260;SDS011;9764;48.114;11.670;2023-04-01T15:46:12;0.30;;;0.30;;
19260;SDS011;9764;48.114;11.670;2023-04-01T15:48:52;0.20;;;0.20;;
19260;SDS011;9764;48.114;11.670;2023-04-01T15:51:36;0.22;;;0.22;;
19260;SDS011;9764;48.114;11.670;2023-04-01T15:54:24;0.22;;;0.22;;
19260;SDS011;9764;48.114;11.670;2023-04-01T15:57:06;0.30;;;0.30;;
19260;SDS011;9764;48.114;11.670;2023-04-01T15:59:47;0.85;;;0.30;;
19260;SDS011;9764;48.114;11.670;2023-04-01T16:02:41;1.35;;;0.40;;
19260;SDS011;9764;48.114;11.670;2023-04-01T16:05:22;0.30;;;0.30;;
19260;SDS011;9764;48.114;11.670;2023-04-01T16:11:18;0.30;;;0.30;;
19260;SDS011;9764;48.114;11.670;2023-04-01T16:13:59;0.32;;;0.32;;
19260;SDS011;9764;48.114;11.670;2023-04-01T16:16:48;0.40;;;0.40;;
19260;SDS011;9764;48.114;11.670;2023-04-01T16:19:41;0.30;;;0.30;;
19260;SDS011;9764;48.114;11.670;2023-04-01T16:22:19;0.30;;;0.30;;
19260;SDS011;9764;48.114;11.670;2023-04-01T16:24:51;0.20;;;0.20;;
19260;SDS011;9764;48.114;11.670;2023-04-01T16:27:26;0.30;;;0.30;;
19260;SDS011;9764;48.114;11.670;2023-04-01T16:30:01;0.32;;;0.32;;
19260;SDS011;9764;48.114;11.670;2023-04-01T16:32:50;0.47;;;0.30;;
19260;SDS011;9764;48.114;11.670;2023-04-01T16:35:34;0.30;;;0.30;;
19260;SDS011;9764;48.114;11.670;2023-04-01T16:38:12;0.30;;;0.30;;
19260;SDS011;9764;48.114;11.670;2023-04-01T16:40:47;0.28;;;0.28;;
19260;SDS011;9764;48.114;11.670;2023-04-01T16:43:25;0.30;;;0.30;;
19260;SDS011;9764;48.114;11.670;2023-04-01T16:46:09;0.30;;;0.30;;
19260;SDS011;9764;48.114;11.670;2023-04-01T16:48:49;0.30;;;0.30;;
19260;SDS011;9764;48.114;11.670;2023-04-01T16:51:34;0.32;;;0.32;;
19260;SDS011;9764;48.114;11.670;2023-04-01T16:54:10;0.30;;;0.30;;
19260;SDS011;9764;48.114;11.670;2023-04-01T16:56:47;0.43;;;0.35;;
19260;SDS011;9764;48.114;11.670;2023-04-01T16:59:20;0.52;;;0.40;;
19260;SDS011;9764;48.114;11.670;2023-04-01T17:01:55;0.50;;;0.40;;
19260;SDS011;9764;48.114;11.670;2023-04-01T17:04:31;1.20;;;0.40;;
19260;SDS011;9764;48.114;11.670;2023-04-01T17:07:10;0.45;;;0.30;;
19260;SDS011;9764;48.114;11.670;2023-04-01T17:09:57;0.30;;;0.30;;
19260;SDS011;9764;48.114;11.670;2023-04-01T17:12:47;0.30;;;0.30;;
19260;SDS011;9764;48.114;11.670;2023-04-01T17:15:26;0.35;;;0.30;;
19260;SDS011;9764;48.114;11.670;2023-04-01T17:18:02;0.30;;;0.30;;
19260;SDS011;9764;48.114;11.670;2023-04-01T17:20:41;0.35;;;0.35;;
19260;SDS011;9764;48.114;11.670;2023-04-01T17:23:18;0.40;;;0.40;;
19260;SDS011;9764;48.114;11.670;2023-04-01T17:26:00;0.50;;;0.28;;
19260;SDS011;9764;48.114;11.670;2023-04-01T17:28:40;0.30;;;0.30;;
19260;SDS011;9764;48.114;11.670;2023-04-01T17:31:16;0.40;;;0.40;;
19260;SDS011;9764;48.114;11.670;2023-04-01T17:34:03;0.32;;;0.32;;
19260;SDS011;9764;48.114;11.670;2023-04-01T17:36:45;0.30;;;0.30;;
19260;SDS011;9764;48.114;11.670;2023-04-01T17:39:38;1.17;;;0.40;;